Time;durP1;ratioP1;P1;durP2;ratioP2;P2;SDS_P1;SDS_P2;PMS_P1;PMS_P2;Temp;Humidity;BMP_temperature;BMP_pressure;BME280_temperature;BME280_humidity;BME280_pressure;Samples;Min_cycle;Max_cycle;Signal;HPM_P1;HPM_P2
2021/04/18 00:01:23;;;;;;;40.43;22.70;;;;;;;6.19;98.41;99615.03;1755658;80;21134;-70
2021/04/18 00:03:52;;;;;;;39.65;22.60;;;;;;;6.18;98.43;99608.50;1755720;81;21605;-70
2021/04/18 00:06:20;;;;;;;46.33;22.95;;;;;;;6.18;98.54;99605.78;1755663;81;20956;-70
2021/04/18 00:08:49;;;;;;;41.90;23.38;;;;;;;6.18;98.60;99603.05;1759978;81;21625;-69
2021/04/18 00:11:17;;;;;;;51.53;24.95;;;;;;;6.19;98.84;99599.23;1761511;81;21587;-69
2021/04/18 00:13:44;;;;;;;41.92;22.85;;;;;;;6.19;98.71;99603.31;1762502;79;21175;-70
2021/04/18 00:16:13;;;;;;;46.83;25.30;;;;;;;6.17;98.77;99594.06;1796272;78;23445;-69
2021/04/18 00:18:41;;;;;;;45.43;23.65;;;;;;;6.18;98.88;99593.52;1748242;80;21195;-69
2021/04/18 00:21:10;;;;;;;44.38;24.27;;;;;;;6.16;98.96;99588.34;1773308;79;21057;-70
2021/04/18 00:23:37;;;;;;;50.30;25.90;;;;;;;6.16;99.06;99591.07;1765277;80;21632;-70
2021/04/18 00:26:06;;;;;;;46.42;25.60;;;;;;;6.16;99.27;99593.80;1768870;79;21103;-69
2021/04/18 00:28:34;;;;;;;51.42;25.75;;;;;;;6.15;99.38;99597.63;1765350;81;21210;-68
2021/04/18 00:31:01;;;;;;;47.93;24.82;;;;;;;6.14;99.51;99597.91;1796523;79;21041;-68
2021/04/18 00:33:29;;;;;;;44.25;24.85;;;;;;;6.14;99.66;99597.91;1765496;81;21167;-68
2021/04/18 00:35:57;;;;;;;42.00;23.77;;;;;;;6.12;99.71;99593.29;1796789;79;21072;-68
2021/04/18 00:38:24;;;;;;;43.42;23.80;;;;;;;6.11;99.83;99597.92;1785257;79;21182;-68
2021/04/18 00:40:52;;;;;;;41.77;24.20;;;;;;;6.10;99.88;99597.66;1825177;78;21642;-69
2021/04/18 00:43:20;;;;;;;44.98;25.12;;;;;;;6.11;100.00;99602.02;1787522;79;21110;-68
2021/04/18 00:45:47;;;;;;;42.75;23.85;;;;;;;6.13;100.00;99608.55;1762544;80;20932;-70
2021/04/18 00:48:15;;;;;;;44.50;23.83;;;;;;;6.13;100.00;99607.18;1785979;80;21561;-69
2021/04/18 00:50:44;;;;;;;45.15;25.00;;;;;;;6.13;100.00;99613.99;1786031;80;21154;-69
2021/04/18 00:53:11;;;;;;;47.17;25.45;;;;;;;6.09;100.00;99600.67;1785942;80;21387;-68
2021/04/18 00:55:42;;;;;;;43.90;23.92;;;;;;;6.11;100.00;99606.66;1786034;80;20948;-68
2021/04/18 00:58:11;;;;;;;47.83;24.37;;;;;;;6.11;100.00;99603.92;1786098;80;20926;-68
2021/04/18 01:00:39;;;;;;;47.73;25.90;;;;;;;6.12;100.00;99606.91;1796547;79;21102;-68
2021/04/18 01:03:08;;;;;;;40.28;23.22;;;;;;;6.12;100.00;99606.91;1771719;79;21134;-68
2021/04/18 01:05:37;;;;;;;42.98;24.07;;;;;;;6.13;100.00;99611.27;1796578;79;21452;-69
2021/04/18 01:08:09;;;;;;;48.90;24.50;;;;;;;6.13;100.00;99606.63;1796378;79;20963;-70
2021/04/18 01:10:39;;;;;;;44.93;25.10;;;;;;;6.14;100.00;99607.45;1743715;82;20985;-70
2021/04/18 01:13:09;;;;;;;47.85;24.57;;;;;;;6.14;100.00;99602.80;1726822;82;20950;-69
2021/04/18 01:15:38;;;;;;;50.25;26.50;;;;;;;6.12;100.00;99600.10;1743388;82;21136;-72
2021/04/18 01:18:07;;;;;;;44.45;25.15;;;;;;;6.13;100.00;99597.64;1743445;82;21471;-70
2021/04/18 01:20:35;;;;;;;50.43;26.85;;;;;;;6.11;100.00;99588.94;1743445;81;21142;-70
2021/04/18 01:23:23;;;;;;;45.95;25.20;;;;;;;6.10;100.00;99590.03;1741082;82;21572;-70
2021/04/18 01:26:09;;;;;;;44.45;24.63;;;;;;;6.07;100.00;99589.23;1743585;81;21071;-69
2021/04/18 01:28:37;;;;;;;45.25;24.43;;;;;;;6.07;100.00;99589.23;1743333;82;21069;-70
2021/04/18 01:31:05;;;;;;;59.88;25.72;;;;;;;6.03;100.00;99591.72;1743385;82;21199;-70
2021/04/18 01:33:36;;;;;;;45.52;25.65;;;;;;;6.03;100.00;99591.72;1743347;81;21563;-70
2021/04/18 01:36:08;;;;;;;50.50;26.15;;;;;;;6.02;100.00;99583.83;1743504;82;20954;-70
2021/04/18 01:38:35;;;;;;;48.23;25.45;;;;;;;5.96;100.00;99582.50;1743344;82;21128;-71
2021/04/18 01:41:07;;;;;;;51.10;26.60;;;;;;;5.95;100.00;99587.69;1743487;81;21148;-72
2021/04/18 01:43:38;;;;;;;;;;;;;;;5.90;100.00;99586.36;1706599;82;22303;-71
2021/04/18 01:46:06;;;;;;;47.17;25.55;;;;;;;5.87;100.00;99579.27;1743472;82;20220;-72
2021/04/18 01:48:37;;;;;;;45.75;25.15;;;;;;;5.82;100.00;99574.67;1743447;81;20941;-71
2021/04/18 01:51:10;;;;;;;44.18;23.52;;;;;;;5.78;100.00;99576.89;1743363;82;21123;-70
2021/04/18 01:53:39;;;;;;;43.25;24.80;;;;;;;5.74;100.00;99575.31;1743328;81;20958;-72
2021/04/18 01:56:09;;;;;;;41.88;23.35;;;;;;;5.68;100.00;99572.90;1743529;82;21243;-72
2021/04/18 01:58:40;;;;;;;44.70;23.25;;;;;;;5.64;100.00;99575.38;1743377;82;20938;-71
2021/04/18 02:01:12;;;;;;;;;;;;;;;5.61;100.00;99570.49;1744886;82;21237;-72
2021/04/18 02:03:42;;;;;;;47.00;25.50;;;;;;;5.56;100.00;99572.70;1726645;82;20554;-72
2021/04/18 02:06:14;;;;;;;43.68;24.95;;;;;;;5.49;100.00;99567.30;1743467;81;21162;-72
2021/04/18 02:08:47;;;;;;;37.03;21.50;;;;;;;5.42;100.00;99570.33;1743686;81;21941;-72
2021/04/18 02:11:18;;;;;;;43.40;24.27;;;;;;;5.27;100.00;99569.05;1750074;81;21151;-72
2021/04/18 02:13:47;;;;;;;44.55;24.63;;;;;;;5.27;100.00;99569.05;1750293;82;20930;-72
2021/04/18 02:16:17;;;;;;;48.40;26.20;;;;;;;5.24;100.00;99564.98;1748297;82;20942;-72
2021/04/18 02:18:46;;;;;;;45.50;24.30;;;;;;;5.23;100.00;99561.17;1748967;80;21114;-72
2021/04/18 02:21:14;;;;;;;52.00;29.15;;;;;;;5.25;100.00;99555.72;1750182;82;21194;-70
2021/04/18 02:23:42;;;;;;;47.75;25.88;;;;;;;5.28;100.00;99562.52;1750298;82;21024;-71
2021/04/18 02:26:11;;;;;;;55.88;28.87;;;;;;;5.37;100.00;99564.10;1750387;82;20941;-71
2021/04/18 02:28:39;;;;;;;49.63;27.80;;;;;;;5.37;100.00;99564.10;1750235;82;21531;-71
2021/04/18 02:31:08;;;;;;;47.03;26.12;;;;;;;5.39;100.00;99557.28;1750255;82;21479;-71
2021/04/18 02:33:41;;;;;;;49.42;26.05;;;;;;;5.41;100.00;99554.28;1750392;82;21400;-71
2021/04/18 02:36:10;;;;;;;40.78;21.93;;;;;;;5.43;100.00;99553.45;1750246;82;20977;-71
2021/04/18 02:38:40;;;;;;;33.48;20.23;;;;;;;5.42;100.00;99547.19;1750392;82;20957;-71
2021/04/18 02:41:08;;;;;;;36.85;21.20;;;;;;;5.42;100.00;99547.19;1750280;82;21154;-71
2021/04/18 02:43:37;;;;;;;32.33;20.40;;;;;;;5.42;100.00;99540.39;1742440;81;21076;-71
2021/04/18 02:46:07;;;;;;;40.50;21.85;;;;;;;5.42;100.00;99540.39;1765988;81;21432;-71
2021/04/18 02:48:36;;;;;;;32.35;19.02;;;;;;;5.45;100.00;99549.90;1765816;81;20958;-72
2021/04/18 02:51:04;;;;;;;31.30;17.00;;;;;;;5.43;100.00;99546.64;1765671;81;21088;-71
2021/04/18 02:53:32;;;;;;;32.15;18.48;;;;;;;5.43;100.00;99552.09;1746395;81;21600;-71
2021/04/18 02:56:02;;;;;;;33.85;19.70;;;;;;;5.42;100.00;99551.27;1765869;81;21053;-71
2021/04/18 02:58:40;;;;;;;33.05;18.92;;;;;;;5.41;100.00;99548.83;1765408;81;21516;-71
2021/04/18 03:01:09;;;;;;;31.68;19.15;;;;;;;5.41;100.00;99548.83;1767406;79;21077;-71
2021/04/18 03:03:38;;;;;;;26.97;17.05;;;;;;;5.41;100.00;99554.28;1756936;81;21057;-71
2021/04/18 03:06:07;;;;;;;34.83;19.42;;;;;;;5.39;99.77;99556.47;1779667;80;21078;-71
2021/04/18 03:08:36;;;;;;;31.60;18.17;;;;;;;5.37;99.72;99558.66;1756174;81;21121;-71
2021/04/18 03:11:05;;;;;;;31.02;19.20;;;;;;;5.36;99.22;99542.87;1784870;80;21345;-71
2021/04/18 03:13:35;;;;;;;32.23;17.67;;;;;;;5.36;99.22;99542.87;1785264;79;21038;-72
2021/04/18 03:16:05;;;;;;;27.98;16.57;;;;;;;5.33;98.96;99536.63;1785138;80;21159;-71
2021/04/18 03:18:33;;;;;;;29.15;16.32;;;;;;;5.33;99.02;99539.34;1762604;81;21049;-72
2021/04/18 03:21:04;;;;;;;32.83;18.32;;;;;;;5.34;99.14;99537.44;1785344;80;21148;-72
2021/04/18 03:23:32;;;;;;;30.00;17.87;;;;;;;5.34;99.19;99542.88;1785211;80;23587;-72
2021/04/18 03:26:04;;;;;;;31.95;18.90;;;;;;;5.34;99.19;99542.88;1762109;80;21042;-73
2021/04/18 03:28:34;;;;;;;32.45;17.02;;;;;;;5.34;99.23;99545.61;1785096;80;21121;-73
2021/04/18 03:31:02;;;;;;;35.33;20.32;;;;;;;5.34;99.15;99545.61;1762535;80;21195;-71
2021/04/18 03:33:31;;;;;;;32.30;19.52;;;;;;;5.33;98.98;99541.26;1784996;80;21186;-71
2021/04/18 03:36:11;;;;;;;35.05;19.55;;;;;;;5.35;99.00;99545.88;1873337;76;22766;-68
2021/04/18 03:38:39;;;;;;;30.62;18.57;;;;;;;5.30;98.96;99538.00;1841330;77;20980;-68
2021/04/18 03:41:08;;;;;;;28.85;16.75;;;;;;;5.32;99.20;99540.44;1841053;77;21416;-68
2021/04/18 03:43:37;;;;;;;29.05;16.93;;;;;;;5.33;98.68;99537.17;1841403;78;21086;-68
2021/04/18 03:46:07;;;;;;;32.93;17.65;;;;;;;5.33;98.68;99537.17;1840693;78;20935;-68
2021/04/18 03:48:38;;;;;;;29.93;16.67;;;;;;;5.33;98.61;99539.90;1758501;81;20939;-68
2021/04/18 03:51:07;;;;;;;28.38;16.45;;;;;;;5.33;98.39;99537.17;1780633;80;20911;-68
2021/04/18 03:53:39;;;;;;;;;;;;;;;5.34;98.33;99530.64;1759486;81;21206;-69
2021/04/18 03:56:08;;;;;;;28.10;15.83;;;;;;;5.35;98.09;99528.99;1780591;80;20494;-73
2021/04/18 03:58:37;;;;;;;30.05;17.82;;;;;;;5.35;98.01;99531.72;1757282;81;21057;-74
2021/04/18 04:01:07;;;;;;;29.92;18.05;;;;;;;5.37;98.01;99531.44;1778913;80;20997;-72
2021/04/18 04:03:36;;;;;;;31.12;17.73;;;;;;;5.36;97.94;99532.53;1780695;80;21573;-68
2021/04/18 04:06:09;;;;;;;29.50;17.07;;;;;;;5.39;97.69;99536.05;1758017;81;21521;-70
2021/04/18 04:08:37;;;;;;;25.75;15.70;;;;;;;5.39;97.69;99536.05;1772670;80;21505;-69
2021/04/18 04:11:07;;;;;;;29.77;18.17;;;;;;;5.33;96.97;99541.26;1749648;81;20951;-68
2021/04/18 04:13:37;;;;;;;29.30;17.35;;;;;;;5.26;97.42;99531.49;1749570;82;21104;-68
2021/04/18 04:16:08;;;;;;;27.40;16.40;;;;;;;5.26;97.42;99531.49;1749728;80;21017;-68
2021/04/18 04:18:38;;;;;;;26.57;15.18;;;;;;;5.28;97.07;99542.91;1748652;82;21204;-68
2021/04/18 04:21:22;;;;;;;26.85;16.52;;;;;;;5.31;97.16;99531.47;1890114;75;22701;-70
2021/04/18 04:23:54;;;;;;;26.60;15.30;;;;;;;5.30;97.29;99531.75;1859163;77;21561;-70
2021/04/18 04:26:22;;;;;;;24.55;15.00;;;;;;;5.34;97.41;99530.64;1861057;77;21371;-68
2021/04/18 04:28:50;;;;;;;24.15;15.45;;;;;;;5.40;97.40;99531.69;1860993;77;20927;-70
2021/04/18 04:31:17;;;;;;;28.50;16.75;;;;;;;5.46;97.21;99522.39;1861036;77;21027;-70
2021/04/18 04:33:45;;;;;;;23.85;14.90;;;;;;;5.51;97.01;99524.27;1861002;77;20987;-70
2021/04/18 04:36:13;;;;;;;25.35;14.18;;;;;;;5.62;96.29;99523.09;1860748;77;21046;-70
2021/04/18 04:38:43;;;;;;;24.95;14.87;;;;;;;5.62;96.29;99523.09;1861089;77;21431;-70
2021/04/18 04:41:12;;;;;;;25.68;15.43;;;;;;;5.67;95.75;99528.51;1861039;77;20927;-70
2021/04/18 04:43:40;;;;;;;25.20;14.15;;;;;;;5.67;95.24;99523.06;1860994;77;21469;-70
2021/04/18 04:46:08;;;;;;;22.73;14.20;;;;;;;5.73;95.10;99521.11;1858221;76;21046;-71
2021/04/18 04:48:36;;;;;;;29.02;15.30;;;;;;;5.77;94.81;99522.98;1843407;77;21100;-72
2021/04/18 04:51:04;;;;;;;25.23;14.60;;;;;;;5.81;94.62;99520.48;1827309;78;21192;-74
2021/04/18 04:53:31;;;;;;;27.20;16.02;;;;;;;5.82;94.31;99518.02;1827239;78;20928;-72
2021/04/18 04:56:00;;;;;;;29.27;16.97;;;;;;;5.86;93.66;99523.97;1843832;76;21037;-71
2021/04/18 04:58:28;;;;;;;28.87;15.75;;;;;;;5.86;93.66;99523.97;1785653;80;21594;-74
2021/04/18 05:00:57;;;;;;;22.07;14.10;;;;;;;5.94;93.88;99523.39;1757942;80;20941;-72
2021/04/18 05:03:27;;;;;;;23.65;14.13;;;;;;;6.11;93.84;99531.15;1791945;79;21155;-71
2021/04/18 05:05:55;;;;;;;23.60;13.88;;;;;;;6.11;93.84;99531.15;1803381;79;21862;-79
2021/04/18 05:08:23;;;;;;;21.80;13.30;;;;;;;6.25;93.50;99523.12;1798252;79;21193;-79
2021/04/18 05:10:50;;;;;;;21.10;13.58;;;;;;;6.38;92.85;99527.86;1771772;81;20961;-78
2021/04/18 05:13:18;;;;;;;24.55;14.43;;;;;;;6.45;92.17;99528.89;1771771;80;21118;-80
2021/04/18 05:15:47;;;;;;;23.38;14.20;;;;;;;6.56;91.98;99529.86;1771669;80;21023;-77
2021/04/18 05:18:14;;;;;;;21.27;13.40;;;;;;;6.61;91.79;99522.17;1771649;81;21054;-78
2021/04/18 05:20:42;;;;;;;22.32;12.85;;;;;;;6.66;91.28;99523.48;1770755;81;20948;-82
2021/04/18 05:23:09;;;;;;;21.05;12.47;;;;;;;6.72;91.16;99526.95;1770377;81;20944;-80
2021/04/18 05:25:38;;;;;;;20.27;12.98;;;;;;;6.82;90.51;99523.56;1770350;81;21024;-78
2021/04/18 05:28:06;;;;;;;21.62;12.88;;;;;;;6.96;90.36;99522.27;1770378;81;21153;-80
2021/04/18 05:30:34;;;;;;;20.10;12.68;;;;;;;7.10;89.65;99520.45;1786195;80;21567;-81
2021/04/18 05:33:03;;;;;;;19.30;12.35;;;;;;;7.20;88.16;99521.68;1785018;80;20927;-80
2021/04/18 05:35:31;;;;;;;18.25;10.82;;;;;;;7.25;87.50;99507.96;1785837;80;21488;-85
2021/04/18 05:38:00;;;;;;;19.67;12.55;;;;;;;7.29;88.36;99513.64;1785780;80;21053;-78
2021/04/18 05:40:28;;;;;;;22.20;12.98;;;;;;;7.41;88.25;99518.11;1785814;80;22262;-83
2021/04/18 05:42:57;;;;;;;20.75;12.80;;;;;;;7.50;87.12;99514.97;1785662;79;21622;-80
2021/04/18 05:45:24;;;;;;;21.50;12.28;;;;;;;7.52;86.72;99508.63;1785798;80;21014;-76
2021/04/18 05:47:51;;;;;;;21.82;11.78;;;;;;;7.54;86.31;99493.31;1785773;80;20958;-83
2021/04/18 05:50:19;;;;;;;19.32;11.90;;;;;;;7.56;85.54;99504.20;1785874;80;21453;-76
2021/04/18 05:52:47;;;;;;;18.60;11.45;;;;;;;7.59;84.94;99502.80;1785886;80;20990;-77
2021/04/18 05:55:14;;;;;;;21.42;13.38;;;;;;;7.64;85.72;99505.45;1785627;80;21062;-78
2021/04/18 05:57:42;;;;;;;19.65;13.03;;;;;;;7.75;85.99;99501.45;1785767;80;21072;-77
2021/04/18 06:00:12;;;;;;;17.42;11.85;;;;;;;7.83;84.77;99513.63;1785811;80;21505;-73
2021/04/18 06:02:39;;;;;;;20.12;12.68;;;;;;;7.82;83.78;99508.72;1785866;80;21080;-73
2021/04/18 06:05:10;;;;;;;19.05;11.55;;;;;;;7.80;84.32;99520.50;1785743;80;21181;-73
2021/04/18 06:07:38;;;;;;;23.67;13.18;;;;;;;7.81;83.66;99511.19;1785677;80;21544;-74
2021/04/18 06:10:09;;;;;;;21.82;13.72;;;;;;;7.78;83.90;99515.88;1785680;80;21073;-75
2021/04/18 06:12:36;;;;;;;20.90;13.40;;;;;;;7.79;83.47;99515.33;1785740;80;21021;-74
2021/04/18 06:15:07;;;;;;;22.10;13.00;;;;;;;7.83;83.93;99517.72;1786087;80;21132;-71
2021/04/18 06:17:36;;;;;;;20.82;13.98;;;;;;;7.92;83.78;99516.75;1786293;79;21516;-75
2021/04/18 06:20:27;;;;;;;19.48;12.75;;;;;;;8.04;83.57;99512.17;1787692;80;21554;-75
2021/04/18 06:22:55;;;;;;;21.05;13.00;;;;;;;8.17;82.43;99506.45;1712308;83;20973;-74
2021/04/18 06:25:25;;;;;;;21.68;12.28;;;;;;;8.19;81.80;99504.23;1712097;83;20977;-73
2021/04/18 06:27:53;;;;;;;21.23;13.32;;;;;;;8.22;82.16;99507.73;1712003;83;21059;-70
2021/04/18 06:30:22;;;;;;;19.92;12.93;;;;;;;8.25;81.84;99503.84;1712155;83;21221;-70
2021/04/18 06:32:49;;;;;;;20.17;12.73;;;;;;;8.24;80.91;99504.14;1712085;83;21005;-72
2021/04/18 06:35:17;;;;;;;21.57;13.93;;;;;;;8.15;80.61;99509.49;1712169;83;20957;-68
2021/04/18 06:37:45;;;;;;;18.95;12.55;;;;;;;8.08;81.19;99513.76;1712287;83;21774;-68
2021/04/18 06:40:13;;;;;;;22.27;13.28;;;;;;;8.06;80.89;99511.88;1735040;82;21207;-70
2021/04/18 06:42:41;;;;;;;19.82;12.93;;;;;;;8.03;80.86;99513.29;1726831;83;21386;-70
2021/04/18 06:45:10;;;;;;;20.80;12.63;;;;;;;8.05;81.11;99515.72;1726288;83;21127;-70
2021/04/18 06:47:41;;;;;;;23.07;13.53;;;;;;;8.10;80.51;99517.78;1728904;83;21037;-69
2021/04/18 06:50:09;;;;;;;23.77;13.32;;;;;;;8.19;81.13;99519.27;1729232;83;21678;-70
2021/04/18 06:52:37;;;;;;;21.07;12.58;;;;;;;8.28;80.71;99521.02;1725927;82;21191;-70
2021/04/18 06:55:07;;;;;;;19.80;12.88;;;;;;;8.35;79.98;99526.69;1728582;83;22746;-70
2021/04/18 06:57:35;;;;;;;21.55;14.20;;;;;;;8.29;79.32;99513.06;1724838;82;21020;-71
2021/04/18 07:00:08;;;;;;;21.23;13.43;;;;;;;8.26;79.52;99512.86;1725289;83;20990;-69
2021/04/18 07:02:35;;;;;;;19.45;12.95;;;;;;;8.23;79.30;99513.45;1728445;83;21532;-71
2021/04/18 07:05:12;;;;;;;22.10;14.43;;;;;;;8.21;79.42;99511.58;1730163;82;21484;-70
2021/04/18 07:07:43;;;;;;;16.93;11.78;;;;;;;8.21;79.86;99511.58;1725016;82;21204;-70
2021/04/18 07:10:27;;;;;;;26.27;13.03;;;;;;;8.30;79.41;99513.88;1713279;83;21132;-69
2021/04/18 07:12:55;;;;;;;19.92;11.90;;;;;;;8.35;78.96;99513.01;1763147;81;21512;-69
2021/04/18 07:15:39;;;;;;;18.57;11.68;;;;;;;8.40;79.04;99516.46;1763271;81;20941;-69
2021/04/18 07:18:08;;;;;;;17.70;11.95;;;;;;;8.48;78.75;99510.30;1763322;81;20934;-71
2021/04/18 07:20:54;;;;;;;18.92;11.85;;;;;;;8.58;78.78;99514.20;1763201;81;21579;-71
2021/04/18 07:23:31;;;;;;;21.12;12.85;;;;;;;8.69;78.22;99511.23;1766326;81;21001;-69
2021/04/18 07:26:23;;;;;;;19.80;12.65;;;;;;;8.74;77.42;99506.48;1738632;81;21021;-69
2021/04/18 07:29:12;;;;;;;23.57;13.15;;;;;;;8.84;78.12;99500.80;1716660;82;21215;-69
2021/04/18 07:31:41;;;;;;;19.85;12.40;;;;;;;8.96;76.68;99496.73;1736648;82;21206;-69
2021/04/18 07:34:13;;;;;;;17.75;11.63;;;;;;;9.04;76.49;99496.83;1736939;82;21323;-69
2021/04/18 07:36:44;;;;;;;23.65;12.50;;;;;;;9.17;76.75;99495.99;1706098;84;21167;-70
2021/04/18 07:39:14;;;;;;;29.65;17.60;;;;;;;9.38;76.49;99494.14;1736799;82;21190;-70
2021/04/18 07:41:45;;;;;;;18.37;11.85;;;;;;;9.54;75.05;99488.56;1737044;82;21602;-71
2021/04/18 07:44:17;;;;;;;92.02;54.55;;;;;;;9.62;73.87;99484.27;1737554;82;21072;-71
2021/04/18 07:46:53;;;;;;;20.62;12.25;;;;;;;9.73;74.50;99481.53;1711504;82;21204;-70
2021/04/18 07:49:21;;;;;;;29.65;16.57;;;;;;;9.93;72.75;99470.03;1737690;82;21020;-69
2021/04/18 07:51:49;;;;;;;16.97;11.48;;;;;;;10.04;72.34;99480.19;1737582;82;21130;-69
2021/04/18 07:54:18;;;;;;;75.47;39.80;;;;;;;10.10;72.20;99467.40;1706926;84;21024;-69
2021/04/18 07:56:47;;;;;;;90.38;45.85;;;;;;;10.17;71.48;99471.06;1737903;82;20949;-69
2021/04/18 07:59:16;;;;;;;96.82;41.15;;;;;;;10.21;72.37;99463.86;1706767;84;21368;-69
2021/04/18 08:01:44;;;;;;;40.52;19.98;;;;;;;10.21;70.90;99457.80;1706617;84;20985;-69
2021/04/18 08:04:12;;;;;;;121.40;47.50;;;;;;;10.12;71.50;99462.41;1706742;84;20957;-70
2021/04/18 08:06:42;;;;;;;18.65;12.18;;;;;;;10.08;71.38;99462.78;1706728;82;21051;-70
2021/04/18 08:09:22;;;;;;;161.73;77.30;;;;;;;10.12;71.25;99456.11;1706662;84;21144;-70
2021/04/18 08:12:16;;;;;;;18.73;12.45;;;;;;;10.29;71.64;99454.05;1737486;82;21361;-70
2021/04/18 08:14:47;;;;;;;21.68;13.30;;;;;;;10.45;70.60;99453.28;1694591;84;21007;-68
2021/04/18 08:17:17;;;;;;;16.27;10.53;;;;;;;10.50;70.42;99450.41;1737836;82;21143;-68
2021/04/18 08:20:01;;;;;;;14.15;9.75;;;;;;;10.44;68.80;99448.92;1737615;82;20945;-69
2021/04/18 08:22:53;;;;;;;15.35;9.63;;;;;;;10.36;69.19;99450.29;1732724;82;21065;-69
2021/04/18 08:25:22;;;;;;;15.38;9.65;;;;;;;10.33;69.46;99446.24;1725134;83;21210;-68
2021/04/18 08:28:00;;;;;;;15.55;9.68;;;;;;;10.30;69.00;99445.50;1723530;83;20965;-68
2021/04/18 08:30:28;;;;;;;16.97;11.15;;;;;;;10.27;69.02;99434.35;1720413;82;21062;-69
2021/04/18 08:32:56;;;;;;;13.83;9.15;;;;;;;10.26;69.74;99436.28;1729066;83;21516;-69
2021/04/18 08:35:26;;;;;;;12.78;8.50;;;;;;;10.23;68.75;99430.87;1723592;83;21101;-69
2021/04/18 08:38:16;;;;;;;17.05;9.38;;;;;;;10.18;69.24;99424.67;1723494;83;21347;-70
2021/04/18 08:40:45;;;;;;;15.60;9.38;;;;;;;10.13;69.80;99428.93;1723583;83;21092;-70
2021/04/18 08:43:21;;;;;;;19.25;12.45;;;;;;;10.15;69.72;99426.68;1723555;83;20962;-70
2021/04/18 08:45:53;;;;;;;31.07;17.77;;;;;;;10.17;70.02;99425.23;1723536;83;21048;-70
2021/04/18 08:48:20;;;;;;;;;;;;;;;10.25;70.40;99428.62;1726107;83;21036;-70
2021/04/18 08:50:57;;;;;;;79.47;32.42;;;;;;;10.31;70.12;99422.98;1723670;83;21388;-69
2021/04/18 08:53:26;;;;;;;24.40;13.75;;;;;;;10.37;70.60;99430.77;1723517;83;20970;-70
2021/04/18 08:56:02;;;;;;;32.53;17.55;;;;;;;10.44;70.45;99426.97;1723518;83;20957;-69
2021/04/18 08:58:36;;;;;;;30.05;15.72;;;;;;;10.58;70.41;99424.11;1720770;83;22039;-70
2021/04/18 09:01:09;;;;;;;30.32;17.62;;;;;;;10.72;69.84;99426.73;1723278;83;21160;-69
2021/04/18 09:03:42;;;;;;;37.25;19.80;;;;;;;10.82;68.59;99427.81;1692386;84;21388;-69
2021/04/18 09:06:24;;;;;;;35.90;19.85;;;;;;;10.85;68.13;99421.67;1698094;84;21223;-71
2021/04/18 09:08:53;;;;;;;20.45;12.30;;;;;;;10.93;68.78;99420.88;1720915;83;21157;-70
2021/04/18 09:11:21;;;;;;;19.50;11.43;;;;;;;11.10;68.22;99413.20;1722937;83;21223;-70
2021/04/18 09:14:00;;;;;;;15.88;10.32;;;;;;;11.19;65.75;99413.45;1701848;84;22216;-70
2021/04/18 09:16:31;;;;;;;12.58;9.23;;;;;;;11.18;66.91;99421.45;1723402;83;21379;-70
2021/04/18 09:19:30;;;;;;;14.07;9.20;;;;;;;11.24;66.94;99411.11;1703506;84;21013;-71
2021/04/18 09:22:06;;;;;;;16.32;9.68;;;;;;;11.24;66.14;99411.91;1703014;84;21137;-70
2021/04/18 09:24:41;;;;;;;19.32;11.10;;;;;;;11.22;66.54;99416.12;1693333;84;21129;-70
2021/04/18 09:27:16;;;;;;;13.68;8.98;;;;;;;11.19;65.75;99409.89;1703142;84;21152;-70
2021/04/18 09:29:58;;;;;;;13.95;8.98;;;;;;;11.03;65.95;99406.81;1723793;83;21382;-71
2021/04/18 09:32:31;;;;;;;14.07;10.20;;;;;;;10.89;66.89;99399.31;1703346;84;20965;-71
2021/04/18 09:34:59;;;;;;;13.58;9.45;;;;;;;10.79;66.96;99403.17;1723986;83;21134;-71
2021/04/18 09:37:35;;;;;;;13.13;8.70;;;;;;;10.70;66.92;99409.77;1726773;83;21108;-70
2021/04/18 09:40:10;;;;;;;12.80;9.18;;;;;;;10.59;66.94;99409.26;1723662;83;21048;-68
2021/04/18 09:42:43;;;;;;;16.37;9.25;;;;;;;10.49;67.51;99419.16;1729378;83;21368;-68
2021/04/18 09:45:17;;;;;;;12.47;8.53;;;;;;;10.34;67.75;99414.13;1729325;83;21147;-68
2021/04/18 09:47:51;;;;;;;14.47;9.63;;;;;;;10.22;68.68;99407.86;1722383;83;21105;-68
2021/04/18 09:50:25;;;;;;;20.85;11.30;;;;;;;10.15;68.99;99413.77;1723652;83;21633;-68
2021/04/18 09:52:53;;;;;;;13.48;9.05;;;;;;;10.11;69.38;99414.16;1721230;83;21053;-68
2021/04/18 09:55:27;;;;;;;23.90;11.28;;;;;;;10.08;69.54;99407.94;1722765;83;21379;-71
2021/04/18 09:57:59;;;;;;;17.73;11.12;;;;;;;10.07;69.95;99406.31;1723615;82;20958;-69
2021/04/18 10:00:36;;;;;;;13.80;9.03;;;;;;;10.09;69.74;99407.37;1723621;82;21136;-69
2021/04/18 10:03:11;;;;;;;22.85;12.15;;;;;;;10.13;70.39;99410.53;1723628;82;21072;-70
2021/04/18 10:05:48;;;;;;;14.45;10.43;;;;;;;10.20;70.43;99404.63;1723751;83;21071;-72
2021/04/18 10:08:29;;;;;;;15.40;10.05;;;;;;;10.22;69.50;99400.44;1729442;83;21210;-72
2021/04/18 10:11:10;;;;;;;15.08;10.32;;;;;;;10.25;69.84;99407.23;1729276;83;21535;-70
2021/04/18 10:13:51;;;;;;;15.32;9.58;;;;;;;10.27;69.61;99408.28;1722900;83;21072;-69
2021/04/18 10:16:33;;;;;;;15.75;9.98;;;;;;;10.25;69.55;99413.53;1723601;83;21072;-70
2021/04/18 10:19:18;;;;;;;17.95;9.88;;;;;;;10.25;70.02;99409.41;1729367;83;21143;-70
2021/04/18 10:22:08;;;;;;;19.80;11.43;;;;;;;10.29;70.25;99413.70;1727589;81;21460;-71
2021/04/18 10:24:47;;;;;;;21.42;11.25;;;;;;;10.36;70.58;99419.55;1712329;83;21603;-70
2021/04/18 10:27:24;;;;;;;12.85;9.65;;;;;;;10.44;70.66;99422.05;1728913;83;21088;-69
2021/04/18 10:29:52;;;;;;;17.65;10.82;;;;;;;10.47;69.98;99418.66;1713040;83;21144;-68
2021/04/18 10:32:21;;;;;;;16.57;11.25;;;;;;;10.45;69.61;99418.17;1729067;83;21167;-69
2021/04/18 10:34:52;;;;;;;15.20;10.28;;;;;;;10.39;70.01;99416.16;1713178;83;21557;-70
2021/04/18 10:37:22;;;;;;;17.37;10.40;;;;;;;10.33;70.26;99418.00;1713371;83;21008;-69
2021/04/18 10:39:51;;;;;;;13.53;10.08;;;;;;;10.31;70.47;99414.76;1713460;83;21005;-69
2021/04/18 10:42:19;;;;;;;15.65;11.83;;;;;;;10.31;70.80;99418.31;1729249;83;21151;-69
2021/04/18 10:44:48;;;;;;;14.93;10.48;;;;;;;10.32;71.14;99415.81;1712457;83;21497;-68
2021/04/18 10:47:16;;;;;;;15.68;10.30;;;;;;;10.36;71.01;99412.69;1715822;82;21159;-76
2021/04/18 10:49:47;;;;;;;19.42;10.93;;;;;;;10.39;71.25;99416.16;1718999;82;21493;-72
2021/04/18 10:52:16;;;;;;;16.87;10.40;;;;;;;10.37;70.21;99421.16;1722151;82;20981;-72
2021/04/18 10:54:43;;;;;;;15.28;11.12;;;;;;;10.31;70.65;99410.64;1721944;82;21076;-69
2021/04/18 10:57:11;;;;;;;15.63;11.50;;;;;;;10.24;70.98;99426.19;1723487;82;21140;-69
2021/04/18 10:59:39;;;;;;;15.88;11.38;;;;;;;10.20;71.34;99423.27;1722315;82;21764;-71
2021/04/18 11:02:07;;;;;;;19.05;10.63;;;;;;;10.23;71.33;99425.94;1721509;82;21235;-69
2021/04/18 11:04:35;;;;;;;17.52;10.63;;;;;;;10.24;71.25;99422.08;1733415;82;21082;-71
2021/04/18 11:07:04;;;;;;;21.12;11.30;;;;;;;10.24;71.42;99420.14;1709099;83;21540;-70
2021/04/18 11:09:32;;;;;;;23.75;14.28;;;;;;;10.24;71.54;99428.94;1732604;82;21123;-70
2021/04/18 11:12:01;;;;;;;25.68;13.98;;;;;;;10.23;71.90;99421.83;1726903;83;21273;-69
2021/04/18 11:14:28;;;;;;;22.07;13.90;;;;;;;10.24;71.86;99423.45;1729194;83;21207;-68
2021/04/18 11:16:56;;;;;;;18.70;12.80;;;;;;;10.25;72.09;99425.88;1729120;83;21563;-69
2021/04/18 11:19:25;;;;;;;23.18;13.40;;;;;;;10.30;72.02;99434.53;1727237;82;21141;-67
2021/04/18 11:21:53;;;;;;;21.10;14.47;;;;;;;10.31;72.10;99427.92;1729330;83;21067;-68
2021/04/18 11:24:21;;;;;;;20.62;12.63;;;;;;;10.31;71.87;99428.48;1721297;83;21378;-67
2021/04/18 11:26:49;;;;;;;21.73;12.47;;;;;;;10.29;71.93;99426.61;1724729;83;21223;-68
2021/04/18 11:29:18;;;;;;;17.57;11.78;;;;;;;10.24;71.59;99424.25;1723728;82;21082;-67
2021/04/18 11:31:47;;;;;;;18.15;12.30;;;;;;;10.23;72.22;99425.94;1725465;83;21505;-74
2021/04/18 11:34:15;;;;;;;17.77;11.80;;;;;;;10.23;72.04;99421.83;1725028;82;21222;-69
2021/04/18 11:36:44;;;;;;;19.30;12.00;;;;;;;10.22;72.24;99425.70;1720674;83;21400;-68
2021/04/18 11:39:12;;;;;;;19.42;12.00;;;;;;;10.22;72.50;99425.13;1724863;83;21986;-68